Time;durP1;ratioP1;P1;durP2;ratioP2;P2;SDS_P1;SDS_P2;PMS_P1;PMS_P2;Temp;Humidity;BMP_temperature;BMP_pressure;BME280_temperature;BME280_humidity;BME280_pressure;Samples;Min_cycle;Max_cycle;Signal;HPM_P1;HPM_P2
2021/08/20 00:02:41;;;;;;;7.63;4.63;;;18.00;99.90;;;;;;5031236;28;20568;-75
2021/08/20 00:05:27;;;;;;;12.43;4.60;;;17.90;99.90;;;;;;5022465;28;20426;-75
2021/08/20 00:08:12;;;;;;;8.13;4.90;;;17.80;99.90;;;;;;5027704;28;20454;-75
2021/08/20 00:10:59;;;;;;;9.83;6.17;;;17.80;99.90;;;;;;5019355;28;20527;-75
2021/08/20 00:13:46;;;;;;;8.70;5.90;;;17.80;99.90;;;;;;5019286;28;20452;-75
2021/08/20 00:16:32;;;;;;;13.80;5.60;;;17.90;99.90;;;;;;5030451;28;20560;-75
2021/08/20 00:19:18;;;;;;;10.90;6.00;;;17.90;99.90;;;;;;5022626;28;20454;-74
2021/08/20 00:22:05;;;;;;;8.77;5.32;;;17.90;99.90;;;;;;5002788;28;20880;-74
2021/08/20 00:24:51;;;;;;;11.00;5.43;;;17.90;99.90;;;;;;5028154;28;20230;-75
2021/08/20 00:27:37;;;;;;;13.43;5.10;;;17.90;99.90;;;;;;5023421;28;20466;-75
2021/08/20 00:30:23;;;;;;;13.00;5.17;;;17.90;99.90;;;;;;5030999;28;21069;-75
2021/08/20 00:33:09;;;;;;;7.57;5.30;;;17.90;99.90;;;;;;5023754;28;20591;-75
2021/08/20 00:35:55;;;;;;;7.60;5.33;;;17.90;99.90;;;;;;5026020;28;20496;-75
2021/08/20 00:38:41;;;;;;;6.93;5.70;;;17.90;99.90;;;;;;5026419;28;20417;-74
2021/08/20 00:41:27;;;;;;;10.10;4.83;;;17.90;99.90;;;;;;5014021;28;20457;-74
2021/08/20 00:44:12;;;;;;;7.33;5.63;;;17.90;99.90;;;;;;5024512;28;20452;-74
2021/08/20 00:46:59;;;;;;;7.43;6.00;;;17.90;99.90;;;;;;5021819;28;20510;-74
2021/08/20 00:49:46;;;;;;;5.87;5.10;;;17.90;99.90;;;;;;5030469;28;20473;-74
2021/08/20 00:52:32;;;;;;;9.60;5.23;;;17.90;99.90;;;;;;5018810;28;20452;-74
2021/08/20 00:55:19;;;;;;;6.57;5.50;;;18.00;99.90;;;;;;4990988;28;20491;-74
2021/08/20 00:58:06;;;;;;;6.23;4.50;;;18.00;99.90;;;;;;5016669;28;20421;-74
2021/08/20 01:00:52;;;;;;;8.63;5.80;;;18.10;99.90;;;;;;5028704;28;20435;-75
2021/08/20 01:03:39;;;;;;;13.53;5.07;;;18.10;99.90;;;;;;5035005;28;20449;-76
2021/08/20 01:06:28;;;;;;;6.33;5.33;;;18.10;99.90;;;;;;5026048;28;20825;-74
2021/08/20 01:09:14;;;;;;;12.90;5.77;;;18.10;99.90;;;;;;5026590;28;20575;-76
2021/08/20 01:12:00;;;;;;;6.70;4.70;;;18.00;99.90;;;;;;5027607;28;20430;-76
2021/08/20 01:14:50;;;;;;;13.80;5.80;;;17.90;99.90;;;;;;5027481;28;20972;-76
2021/08/20 01:17:36;;;;;;;7.53;6.10;;;17.90;99.90;;;;;;5025241;28;20442;-76
2021/08/20 01:20:23;;;;;;;9.40;5.23;;;17.90;99.90;;;;;;5021683;28;20438;-74
2021/08/20 01:23:09;;;;;;;10.80;5.73;;;17.90;99.90;;;;;;5030291;28;20586;-75
2021/08/20 01:25:56;;;;;;;9.02;5.75;;;17.80;99.90;;;;;;5016956;28;20443;-76
2021/08/20 01:28:42;;;;;;;12.03;5.47;;;17.80;99.90;;;;;;5026997;28;20347;-75
2021/08/20 01:31:28;;;;;;;7.03;5.70;;;17.90;99.90;;;;;;5033301;28;20420;-75
2021/08/20 01:34:15;;;;;;;7.43;5.40;;;17.90;99.90;;;;;;5023918;28;20230;-75
2021/08/20 01:37:00;;;;;;;9.13;5.70;;;17.80;99.90;;;;;;5034558;28;20472;-76
2021/08/20 01:39:46;;;;;;;8.90;5.53;;;17.70;99.90;;;;;;5021641;28;20948;-75
2021/08/20 01:42:33;;;;;;;7.97;5.00;;;17.90;99.90;;;;;;5034227;28;20420;-77
2021/08/20 01:45:18;;;;;;;8.90;5.27;;;17.80;99.90;;;;;;5028338;28;20441;-76
2021/08/20 01:48:05;;;;;;;10.80;4.70;;;17.70;99.90;;;;;;5029347;28;20549;-76
2021/08/20 01:50:50;;;;;;;7.43;5.20;;;17.80;99.90;;;;;;5032837;28;20518;-75
2021/08/20 01:53:36;;;;;;;6.90;5.30;;;17.80;99.90;;;;;;5026446;28;20541;-76
2021/08/20 01:56:23;;;;;;;6.77;5.23;;;17.80;99.90;;;;;;5058096;22;20538;-74
2021/08/20 01:59:10;;;;;;;6.37;4.03;;;17.80;99.90;;;;;;5047720;28;20991;-75
2021/08/20 02:01:55;;;;;;;11.35;5.65;;;17.80;99.90;;;;;;5052067;28;20460;-74
2021/08/20 02:04:41;;;;;;;9.00;5.25;;;17.80;99.90;;;;;;5043543;28;20449;-74
2021/08/20 02:07:26;;;;;;;5.90;5.30;;;17.80;99.90;;;;;;5044009;28;20210;-74
2021/08/20 02:10:13;;;;;;;6.13;5.40;;;17.80;99.90;;;;;;5046925;28;20476;-75
2021/08/20 02:12:59;;;;;;;8.63;5.50;;;17.90;99.90;;;;;;5046232;28;21146;-75
2021/08/20 02:15:46;;;;;;;6.90;5.00;;;17.90;99.90;;;;;;5052655;28;20555;-74
2021/08/20 02:18:32;;;;;;;8.03;5.40;;;17.80;99.90;;;;;;5044206;28;20934;-74
2021/08/20 02:21:17;;;;;;;8.17;5.40;;;17.60;99.90;;;;;;5048777;28;20586;-74
2021/08/20 02:24:03;;;;;;;5.80;5.07;;;17.60;99.90;;;;;;5039556;28;20527;-75
2021/08/20 02:26:49;;;;;;;6.97;5.60;;;17.60;99.90;;;;;;5051225;28;20511;-75
2021/08/20 02:29:35;;;;;;;8.00;5.40;;;17.70;99.90;;;;;;5053055;28;20468;-75
2021/08/20 02:32:22;;;;;;;5.90;5.30;;;17.70;99.90;;;;;;5043640;28;20918;-75
2021/08/20 02:35:08;;;;;;;7.10;4.80;;;17.60;99.90;;;;;;5033760;28;20556;-75
2021/08/20 02:37:55;;;;;;;14.10;5.93;;;17.60;99.90;;;;;;5043979;28;20428;-74
2021/08/20 02:40:41;;;;;;;9.90;5.53;;;17.50;99.90;;;;;;5055203;28;20566;-75
2021/08/20 02:43:26;;;;;;;8.27;5.40;;;17.60;99.90;;;;;;5052135;28;20206;-75
2021/08/20 02:46:12;;;;;;;6.73;5.17;;;17.70;99.90;;;;;;5049107;28;20608;-75
2021/08/20 02:48:59;;;;;;;11.70;5.70;;;17.70;99.90;;;;;;5043975;28;20514;-75
2021/08/20 02:51:44;;;;;;;11.80;4.63;;;17.70;99.90;;;;;;5043090;28;20473;-74
2021/08/20 02:54:30;;;;;;;6.13;5.17;;;17.70;99.90;;;;;;5049901;28;20942;-72
2021/08/20 02:57:15;;;;;;;6.03;5.30;;;17.70;99.90;;;;;;5046572;28;20421;-74
2021/08/20 03:00:01;;;;;;;5.63;5.00;;;17.80;99.90;;;;;;5047019;28;20462;-74
2021/08/20 03:02:46;;;;;;;9.83;5.23;;;17.80;99.90;;;;;;5050779;28;20428;-75
2021/08/20 03:05:33;;;;;;;10.53;5.37;;;17.80;99.90;;;;;;5050663;28;20473;-75
2021/08/20 03:08:19;;;;;;;8.33;5.63;;;17.80;99.90;;;;;;5051986;28;20419;-74
2021/08/20 03:11:04;;;;;;;11.70;5.63;;;17.80;99.90;;;;;;5049894;28;21005;-75
2021/08/20 03:13:50;;;;;;;6.77;5.77;;;17.70;99.90;;;;;;5051279;28;20206;-74
2021/08/20 03:16:35;;;;;;;9.60;5.50;;;17.80;99.90;;;;;;5046122;28;20781;-75
2021/08/20 03:19:21;;;;;;;12.03;6.47;;;17.80;99.90;;;;;;5051107;28;20441;-74
2021/08/20 03:22:08;;;;;;;10.20;5.33;;;17.80;99.90;;;;;;5051581;28;20903;-75
2021/08/20 03:24:53;;;;;;;10.83;5.40;;;17.80;99.90;;;;;;5048686;28;20491;-75
2021/08/20 03:27:39;;;;;;;12.33;5.30;;;17.80;99.90;;;;;;5051447;28;20399;-74
2021/08/20 03:30:25;;;;;;;6.93;4.63;;;17.80;99.90;;;;;;5051060;28;20733;-75
2021/08/20 03:33:11;;;;;;;7.33;4.50;;;17.90;99.90;;;;;;5039182;28;20599;-75
2021/08/20 03:35:56;;;;;;;11.07;5.20;;;17.90;99.90;;;;;;5050293;28;20472;-75
2021/08/20 03:38:43;;;;;;;6.00;4.73;;;17.90;99.90;;;;;;5051242;28;20441;-74
2021/08/20 03:41:29;;;;;;;5.10;4.60;;;17.80;99.90;;;;;;5046227;28;20438;-75
2021/08/20 03:44:15;;;;;;;13.93;5.93;;;17.80;99.90;;;;;;5051121;28;20410;-74
2021/08/20 03:47:00;;;;;;;11.10;5.13;;;17.80;99.90;;;;;;5042739;28;20444;-74
2021/08/20 03:49:46;;;;;;;7.38;5.30;;;17.70;99.90;;;;;;5050134;28;20492;-75
2021/08/20 03:52:31;;;;;;;7.40;5.50;;;17.70;99.90;;;;;;5047903;28;20754;-75
2021/08/20 03:55:20;;;;;;;7.63;6.10;;;17.70;99.90;;;;;;5039063;28;20496;-75
2021/08/20 03:58:06;;;;;;;8.63;6.40;;;17.70;99.90;;;;;;5042402;28;20940;-75
2021/08/20 04:00:52;;;;;;;7.47;6.33;;;17.60;99.90;;;;;;5050087;28;20457;-75
2021/08/20 04:03:38;;;;;;;6.13;5.30;;;17.60;99.90;;;;;;5050055;28;21206;-75
2021/08/20 04:06:23;;;;;;;5.97;5.37;;;17.70;99.90;;;;;;5049831;28;20480;-75
2021/08/20 04:09:09;;;;;;;13.90;5.53;;;17.70;99.90;;;;;;5043616;28;20561;-75
2021/08/20 04:11:56;;;;;;;8.10;5.53;;;17.60;99.90;;;;;;5049372;28;20437;-74
2021/08/20 04:14:42;;;;;;;9.53;5.60;;;17.60;99.90;;;;;;5049750;28;20473;-75
2021/08/20 04:17:27;;;;;;;7.57;5.80;;;17.70;99.90;;;;;;5049830;28;20440;-75
2021/08/20 04:20:13;;;;;;;7.70;5.13;;;17.70;99.90;;;;;;5045041;28;20416;-75
2021/08/20 04:23:00;;;;;;;9.67;6.27;;;17.70;99.90;;;;;;5045912;28;21019;-75
2021/08/20 04:25:46;;;;;;;12.20;5.97;;;17.70;99.90;;;;;;5048460;28;20415;-75
2021/08/20 04:28:32;;;;;;;9.00;5.87;;;17.70;99.90;;;;;;5050196;28;20812;-75
2021/08/20 04:31:18;;;;;;;7.40;5.37;;;17.70;99.90;;;;;;5050966;28;20997;-74
2021/08/20 04:34:04;;;;;;;7.73;5.53;;;17.70;99.90;;;;;;5049758;28;20459;-75
2021/08/20 04:36:49;;;;;;;9.50;5.47;;;17.70;99.90;;;;;;5053830;28;20428;-75
2021/08/20 04:39:35;;;;;;;9.23;5.13;;;17.70;99.90;;;;;;5045565;28;20461;-74
2021/08/20 04:42:20;;;;;;;8.43;6.13;;;17.70;99.90;;;;;;5054247;28;20443;-75
2021/08/20 04:45:08;;;;;;;7.07;5.67;;;17.70;99.90;;;;;;5054401;28;21018;-75
2021/08/20 04:47:54;;;;;;;6.90;5.00;;;17.70;99.90;;;;;;5054035;28;20476;-74
2021/08/20 04:50:39;;;;;;;7.30;6.23;;;17.70;99.90;;;;;;5052521;28;20447;-74
2021/08/20 04:53:29;;;;;;;10.83;5.40;;;17.70;99.90;;;;;;5050293;28;20425;-75
2021/08/20 04:56:15;;;;;;;7.10;5.73;;;17.70;99.90;;;;;;5053185;28;20451;-74
2021/08/20 04:59:02;;;;;;;8.63;6.50;;;17.70;99.90;;;;;;5052426;28;20450;-75
2021/08/20 05:01:49;;;;;;;7.40;5.53;;;17.60;99.90;;;;;;5053733;28;20924;-74
2021/08/20 05:04:37;;;;;;;9.30;6.10;;;17.70;99.90;;;;;;5052342;28;20296;-75
2021/08/20 05:07:22;;;;;;;16.20;5.60;;;17.70;99.90;;;;;;5049735;28;20427;-74
2021/08/20 05:10:10;;;;;;;6.53;5.90;;;17.70;99.90;;;;;;5053847;28;20477;-74
2021/08/20 05:12:56;;;;;;;10.63;5.97;;;17.80;99.90;;;;;;5053163;28;21046;-73
2021/08/20 05:15:41;;;;;;;7.60;5.50;;;17.80;99.90;;;;;;5053453;28;20814;-75
2021/08/20 05:18:28;;;;;;;9.20;5.63;;;17.80;99.90;;;;;;5044990;28;20846;-74
2021/08/20 05:21:15;;;;;;;13.60;6.00;;;17.80;99.90;;;;;;5041971;28;20527;-73
2021/08/20 05:24:00;;;;;;;7.57;5.67;;;17.80;99.90;;;;;;5031786;28;20934;-74
2021/08/20 05:26:46;;;;;;;8.63;6.13;;;17.80;99.90;;;;;;5051919;28;20404;-74
2021/08/20 05:29:31;;;;;;;19.13;5.50;;;17.80;99.90;;;;;;5053196;28;20410;-74
2021/08/20 05:32:17;;;;;;;6.57;5.67;;;17.80;99.90;;;;;;5048713;28;20514;-74
2021/08/20 05:35:05;;;;;;;8.87;5.80;;;17.80;99.90;;;;;;5045951;28;20499;-75
2021/08/20 05:37:50;;;;;;;10.32;6.10;;;17.80;99.90;;;;;;5049269;28;20521;-74
2021/08/20 05:40:36;;;;;;;10.07;5.30;;;17.70;99.90;;;;;;5049935;28;20206;-75
2021/08/20 05:43:21;;;;;;;12.97;5.97;;;17.80;99.90;;;;;;5052236;28;20448;-74
2021/08/20 05:46:07;;;;;;;9.80;6.63;;;17.80;99.90;;;;;;5046221;28;20483;-74
2021/08/20 05:48:53;;;;;;;6.33;5.10;;;17.80;99.90;;;;;;5042844;28;21175;-75
2021/08/20 05:51:40;;;;;;;8.47;5.33;;;17.80;99.90;;;;;;5053552;28;20455;-75
2021/08/20 05:54:25;;;;;;;6.57;5.70;;;17.70;99.90;;;;;;5038012;28;20973;-74
2021/08/20 05:57:11;;;;;;;8.97;5.90;;;17.80;99.90;;;;;;5046310;28;20420;-75
2021/08/20 05:59:56;;;;;;;9.43;5.73;;;17.70;99.90;;;;;;5052189;28;20442;-75
2021/08/20 06:02:42;;;;;;;7.37;5.60;;;17.80;99.90;;;;;;5051027;28;20411;-74
2021/08/20 06:05:28;;;;;;;6.00;5.30;;;17.70;99.90;;;;;;5052597;28;20498;-73
2021/08/20 06:08:15;;;;;;;12.05;6.78;;;17.80;99.90;;;;;;5052744;28;20455;-74
2021/08/20 06:11:00;;;;;;;8.10;6.00;;;17.90;99.90;;;;;;5057387;28;20712;-74
2021/08/20 06:13:49;;;;;;;7.82;5.80;;;18.00;99.90;;;;;;5050600;28;20442;-74
2021/08/20 06:16:34;;;;;;;6.73;6.00;;;18.00;99.90;;;;;;5043258;28;20750;-74
2021/08/20 06:19:20;;;;;;;7.83;6.00;;;18.10;99.90;;;;;;5045710;28;21008;-74
2021/08/20 06:22:06;;;;;;;12.57;6.10;;;18.20;99.90;;;;;;5037906;28;20421;-74
2021/08/20 06:24:52;;;;;;;8.43;6.80;;;18.30;99.90;;;;;;5049281;28;20507;-75
2021/08/20 06:27:38;;;;;;;8.63;6.20;;;18.30;99.90;;;;;;5043743;28;20919;-74
2021/08/20 06:30:24;;;;;;;9.33;6.73;;;18.40;99.90;;;;;;5048078;28;20484;-75
2021/08/20 06:33:10;;;;;;;11.67;7.63;;;18.40;99.90;;;;;;5051993;28;20449;-75
2021/08/20 06:35:55;;;;;;;9.93;7.67;;;18.50;99.90;;;;;;5051780;28;20515;-75
2021/08/20 06:38:41;;;;;;;7.67;6.10;;;18.70;99.90;;;;;;5047570;28;20505;-75
2021/08/20 06:41:28;;;;;;;7.90;6.13;;;18.80;99.90;;;;;;5048329;28;20392;-75
2021/08/20 06:44:14;;;;;;;11.20;6.22;;;18.80;99.90;;;;;;5046428;28;20467;-75
2021/08/20 06:47:00;;;;;;;7.20;5.90;;;18.90;99.90;;;;;;5049920;28;20207;-75
2021/08/20 06:49:45;;;;;;;9.90;6.45;;;18.70;99.90;;;;;;5050579;28;20451;-75
2021/08/20 06:52:31;;;;;;;7.83;6.07;;;18.60;99.90;;;;;;5050375;28;20222;-75
2021/08/20 06:55:16;;;;;;;6.20;4.20;;;18.50;99.90;;;;;;5046275;28;20469;-75
2021/08/20 06:58:03;;;;;;;9.80;5.60;;;18.60;99.90;;;;;;5049058;28;21046;-75
2021/08/20 07:00:49;;;;;;;11.47;6.80;;;18.70;99.90;;;;;;5050469;28;20414;-75
2021/08/20 07:03:34;;;;;;;9.97;7.50;;;18.80;99.90;;;;;;5050976;28;20466;-75
2021/08/20 07:06:21;;;;;;;8.80;5.70;;;19.00;99.90;;;;;;5050392;28;20553;-75
2021/08/20 07:09:07;;;;;;;7.97;6.33;;;19.10;99.90;;;;;;5051093;28;20972;-75
2021/08/20 07:11:53;;;;;;;13.13;6.13;;;19.20;99.90;;;;;;5051169;28;21024;-75
2021/08/20 07:14:40;;;;;;;8.73;6.10;;;19.10;99.90;;;;;;5042582;28;20950;-75
2021/08/20 07:17:25;;;;;;;10.83;5.80;;;19.00;99.90;;;;;;5051030;28;20398;-75
2021/08/20 07:20:12;;;;;;;13.07;6.00;;;18.90;99.90;;;;;;5037812;28;20551;-75
2021/08/20 07:22:57;;;;;;;6.75;5.90;;;18.90;99.90;;;;;;5033755;28;20944;-75
2021/08/20 07:25:43;;;;;;;7.13;5.87;;;18.80;99.90;;;;;;5047457;28;20587;-75
2021/08/20 07:28:29;;;;;;;7.30;5.53;;;18.80;99.90;;;;;;5048561;28;20823;-75
2021/08/20 07:31:16;;;;;;;6.57;5.30;;;19.00;99.90;;;;;;5051344;28;20495;-75
2021/08/20 07:34:02;;;;;;;7.70;4.80;;;19.10;99.90;;;;;;5047079;28;21033;-75
2021/08/20 07:36:47;;;;;;;8.60;5.67;;;19.20;99.90;;;;;;5048805;28;20772;-76
2021/08/20 07:39:32;;;;;;;5.40;4.57;;;19.30;99.90;;;;;;5051558;28;20459;-75
2021/08/20 07:42:19;;;;;;;5.63;3.90;;;19.40;99.90;;;;;;5045735;28;20525;-76
2021/08/20 07:45:05;;;;;;;5.90;4.00;;;19.60;99.90;;;;;;5043888;28;20457;-74
2021/08/20 07:47:52;;;;;;;8.43;4.37;;;19.70;99.90;;;;;;5049141;28;20446;-76
2021/08/20 07:50:40;;;;;;;5.97;4.57;;;19.90;99.90;;;;;;5049034;28;20439;-76
2021/08/20 07:53:25;;;;;;;6.28;4.82;;;19.80;99.90;;;;;;5046640;28;20489;-72
2021/08/20 07:56:11;;;;;;;8.57;4.63;;;19.80;99.90;;;;;;5071824;22;20261;-73
2021/08/20 07:58:57;;;;;;;7.80;4.65;;;19.80;99.90;;;;;;5048429;28;20451;-72
2021/08/20 08:01:43;;;;;;;8.00;5.30;;;19.70;99.90;;;;;;5050870;28;20789;-73
2021/08/20 08:04:30;;;;;;;8.97;4.70;;;19.70;99.90;;;;;;5046027;28;20513;-73
2021/08/20 08:07:15;;;;;;;5.93;4.83;;;19.80;99.90;;;;;;5029586;28;21283;-73
2021/08/20 08:10:01;;;;;;;5.47;4.53;;;19.80;99.90;;;;;;5022214;28;20734;-73
2021/08/20 08:12:47;;;;;;;4.90;4.00;;;19.80;99.90;;;;;;5024701;28;20509;-73
2021/08/20 08:15:33;;;;;;;5.33;3.80;;;19.80;99.90;;;;;;5025243;28;20527;-73
2021/08/20 08:18:19;;;;;;;8.47;5.00;;;19.80;99.90;;;;;;5025578;28;20517;-72
2021/08/20 08:21:06;;;;;;;5.90;4.73;;;19.80;99.90;;;;;;5026170;28;20527;-72
2021/08/20 08:23:51;;;;;;;8.63;4.63;;;19.90;99.90;;;;;;5023610;28;20449;-72
2021/08/20 08:26:37;;;;;;;5.50;4.60;;;19.80;99.90;;;;;;5021981;28;20528;-72
2021/08/20 08:29:23;;;;;;;7.57;3.90;;;19.80;99.90;;;;;;5015815;28;20810;-72
2021/08/20 08:32:09;;;;;;;6.03;3.97;;;19.90;99.90;;;;;;5025097;28;20533;-72
2021/08/20 08:34:54;;;;;;;5.90;4.80;;;20.00;99.90;;;;;;5026666;28;20819;-73
2021/08/20 08:37:42;;;;;;;5.43;4.33;;;20.10;99.90;;;;;;5028134;28;20484;-72
2021/08/20 08:40:27;;;;;;;5.97;4.97;;;20.10;99.90;;;;;;5028746;28;20966;-72
2021/08/20 08:43:14;;;;;;;5.10;3.90;;;20.20;99.90;;;;;;5026698;28;21010;-76
2021/08/20 08:46:04;;;;;;;6.97;4.60;;;20.20;99.90;;;;;;5023453;28;20573;-76
2021/08/20 08:48:50;;;;;;;9.57;5.07;;;20.20;99.90;;;;;;5019170;28;20785;-75
2021/08/20 08:51:36;;;;;;;5.43;4.27;;;20.30;99.90;;;;;;5023106;28;20473;-75
2021/08/20 08:54:23;;;;;;;4.60;3.57;;;20.30;99.90;;;;;;5024371;28;20461;-75
2021/08/20 08:57:09;;;;;;;5.50;4.20;;;20.40;99.90;;;;;;5018944;28;20498;-75
2021/08/20 08:59:54;;;;;;;5.50;3.50;;;20.30;99.90;;;;;;5022494;28;20414;-75
2021/08/20 09:02:40;;;;;;;9.70;4.07;;;20.30;99.90;;;;;;5025530;28;20274;-76
2021/08/20 09:05:26;;;;;;;5.20;2.90;;;20.50;99.90;;;;;;5023514;28;20576;-74
2021/08/20 09:08:13;;;;;;;3.57;2.47;;;20.60;99.90;;;;;;5025174;28;20360;-75
2021/08/20 09:11:01;;;;;;;5.57;2.33;;;20.80;99.90;;;;;;5024987;28;20455;-75
2021/08/20 09:13:47;;;;;;;4.60;2.70;;;20.80;99.90;;;;;;5026385;28;20497;-75
2021/08/20 09:16:41;;;;;;;5.50;3.33;;;20.90;99.90;;;;;;5022764;28;20569;-75
2021/08/20 09:19:29;;;;;;;5.30;3.53;;;21.00;99.90;;;;;;5026959;28;20442;-75
2021/08/20 09:22:14;;;;;;;4.77;3.47;;;21.10;99.90;;;;;;5026702;28;21122;-75
2021/08/20 09:25:00;;;;;;;4.93;3.53;;;21.30;99.90;;;;;;5025253;28;20805;-75
2021/08/20 09:27:47;;;;;;;7.10;3.70;;;21.30;99.90;;;;;;5028404;28;20450;-73
2021/08/20 09:30:33;;;;;;;5.30;3.23;;;21.30;99.90;;;;;;5027620;28;20501;-73
2021/08/20 09:33:18;;;;;;;5.63;4.43;;;21.40;99.90;;;;;;5024630;28;20830;-72
2021/08/20 09:36:07;;;;;;;5.40;3.90;;;21.40;99.90;;;;;;5025935;28;20452;-72
2021/08/20 09:38:54;;;;;;;11.40;4.17;;;21.30;99.90;;;;;;5023976;28;20228;-73
2021/08/20 09:41:44;;;;;;;4.40;3.60;;;21.50;99.90;;;;;;5023482;28;20465;-73
2021/08/20 09:44:31;;;;;;;4.83;3.73;;;21.60;99.90;;;;;;5028314;28;20455;-73
2021/08/20 09:47:17;;;;;;;7.60;4.00;;;21.80;99.90;;;;;;5029832;28;21060;-73
2021/08/20 09:50:03;;;;;;;5.63;4.20;;;21.90;99.90;;;;;;5025144;28;20450;-73
2021/08/20 09:52:50;;;;;;;4.17;3.40;;;22.00;99.90;;;;;;5030184;28;20993;-73
2021/08/20 09:55:37;;;;;;;5.23;3.67;;;22.20;99.90;;;;;;5025540;28;20515;-73
2021/08/20 09:58:23;;;;;;;5.20;4.50;;;22.30;99.90;;;;;;5023728;28;20891;-73
2021/08/20 10:01:10;;;;;;;6.85;3.75;;;22.30;99.90;;;;;;5031702;28;20420;-73
2021/08/20 10:03:56;;;;;;;5.20;3.40;;;22.40;99.90;;;;;;5027478;28;20205;-73
2021/08/20 10:06:43;;;;;;;7.00;3.92;;;22.50;99.90;;;;;;5018957;28;20941;-73
2021/08/20 10:09:30;;;;;;;7.40;4.00;;;22.60;99.90;;;;;;5027618;28;20220;-73
2021/08/20 10:12:19;;;;;;;5.20;3.90;;;22.70;99.90;;;;;;5030961;28;20482;-73
2021/08/20 10:15:07;;;;;;;5.40;3.77;;;22.60;99.90;;;;;;5027692;28;20549;-73
2021/08/20 10:17:55;;;;;;;4.70;3.17;;;22.40;99.90;;;;;;5022954;28;20441;-73
2021/08/20 10:20:42;;;;;;;7.20;3.53;;;22.30;99.90;;;;;;5030281;28;20414;-73
2021/08/20 10:23:28;;;;;;;4.53;3.13;;;22.30;99.90;;;;;;5027366;28;20483;-73
2021/08/20 10:26:15;;;;;;;4.10;3.37;;;22.60;99.90;;;;;;5018787;28;20479;-75
2021/08/20 10:29:02;;;;;;;4.90;3.17;;;22.90;99.90;;;;;;5026302;28;20571;-73
2021/08/20 10:31:48;;;;;;;5.10;3.93;;;23.10;99.90;;;;;;5027560;28;21023;-73
2021/08/20 10:34:40;;;;;;;4.70;3.40;;;23.20;99.90;;;;;;5031067;28;20441;-73
2021/08/20 10:37:28;;;;;;;5.03;3.50;;;23.20;99.90;;;;;;5026374;28;20204;-73
2021/08/20 10:40:23;;;;;;;3.90;2.97;;;23.30;99.90;;;;;;5028587;28;20537;-73
2021/08/20 10:43:29;;;;;;;3.80;2.90;;;23.30;97.00;;;;;;5032148;28;20443;-73
2021/08/20 10:47:07;;;;;;;5.53;4.10;;;23.30;99.90;;;;;;5024866;28;20939;-73
2021/08/20 10:50:09;;;;;;;3.63;3.13;;;23.10;94.90;;;;;;5031562;28;20435;-74
2021/08/20 10:52:55;;;;;;;3.50;2.60;;;23.20;96.00;;;;;;5024874;28;20610;-75
2021/08/20 10:55:41;;;;;;;6.80;2.93;;;23.00;95.90;;;;;;5030432;28;20442;-76
2021/08/20 10:58:41;;;;;;;4.47;3.00;;;23.00;96.30;;;;;;5032685;28;20418;-75
2021/08/20 11:01:28;;;;;;;4.70;2.80;;;23.20;95.90;;;;;;5032184;28;20791;-75
2021/08/20 11:04:34;;;;;;;3.33;2.40;;;23.30;93.60;;;;;;5031028;28;20955;-75
2021/08/20 11:07:43;;;;;;;5.93;2.33;;;23.50;92.90;;;;;;5032003;28;20209;-76
2021/08/20 11:10:33;;;;;;;6.27;2.47;;;23.60;89.70;;;;;;5036573;28;20556;-75
2021/08/20 11:13:19;;;;;;;3.37;2.40;;;23.80;89.30;;;;;;5026869;28;20479;-75
2021/08/20 11:16:04;;;;;;;4.40;2.60;;;23.80;80.90;;;;;;5031569;28;20452;-75
2021/08/20 11:18:50;;;;;;;3.40;2.40;;;23.90;85.50;;;;;;5031054;28;20483;-75
2021/08/20 11:21:43;;;;;;;3.77;2.50;;;24.00;89.70;;;;;;5031912;28;20430;-76
2021/08/20 11:24:30;;;;;;;9.57;2.10;;;24.10;87.70;;;;;;5030598;28;20460;-74
2021/08/20 11:27:16;;;;;;;2.90;2.20;;;24.20;82.70;;;;;;5031845;28;20439;-75
2021/08/20 11:30:03;;;;;;;3.30;2.20;;;24.10;80.70;;;;;;5030999;28;20548;-75
2021/08/20 11:32:49;;;;;;;3.77;2.43;;;24.10;81.80;;;;;;5031852;28;20567;-76
2021/08/20 11:35:35;;;;;;;5.13;2.83;;;24.00;79.00;;;;;;5031345;28;20444;-75
2021/08/20 11:38:28;;;;;;;3.37;2.50;;;23.90;82.40;;;;;;5031753;28;20428;-75
2021/08/20 11:41:20;;;;;;;4.40;2.80;;;23.90;80.80;;;;;;5031602;28;20428;-75
2021/08/20 11:44:08;;;;;;;5.20;3.10;;;23.90;82.80;;;;;;5011721;28;20400;-76
2021/08/20 11:46:53;;;;;;;4.40;3.00;;;24.10;82.60;;;;;;5011200;28;20503;-75
2021/08/20 11:49:39;;;;;;;4.10;2.67;;;24.20;72.80;;;;;;5011946;28;20429;-75
2021/08/20 11:52:24;;;;;;;3.88;2.53;;;24.40;75.00;;;;;;5010480;28;20446;-75
2021/08/20 11:55:16;;;;;;;3.70;2.40;;;24.50;71.80;;;;;;5010374;28;20832;-76
2021/08/20 11:58:03;;;;;;;3.23;1.93;;;24.50;71.10;;;;;;5011690;28;20565;-76
2021/08/20 12:00:49;;;;;;;5.23;2.10;;;24.80;74.60;;;;;;5011622;28;20421;-75
2021/08/20 12:03:35;;;;;;;3.30;2.23;;;25.00;70.80;;;;;;5011537;28;20469;-76
2021/08/20 12:06:21;;;;;;;10.00;2.30;;;24.90;71.50;;;;;;5029475;28;20802;-75
2021/08/20 12:09:11;;;;;;;3.83;2.10;;;25.00;70.90;;;;;;5032248;28;20427;-76
2021/08/20 12:11:58;;;;;;;2.80;2.13;;;24.80;68.80;;;;;;5022717;28;20479;-75
2021/08/20 12:14:45;;;;;;;3.00;2.00;;;24.50;65.40;;;;;;5030871;28;20432;-75
2021/08/20 12:17:32;;;;;;;2.80;2.27;;;24.40;65.60;;;;;;5024756;28;20829;-76
2021/08/20 12:20:21;;;;;;;3.70;2.60;;;24.60;64.70;;;;;;5016716;28;27670;-76
2021/08/20 12:23:07;;;;;;;3.30;2.20;;;24.80;62.80;;;;;;5019516;28;20707;-76
2021/08/20 12:25:53;;;;;;;3.30;2.20;;;25.10;65.00;;;;;;5025011;28;20550;-76
2021/08/20 12:28:41;;;;;;;5.80;2.63;;;25.20;62.40;;;;;;5030754;28;20483;-76
2021/08/20 12:31:28;;;;;;;5.53;2.70;;;25.10;64.20;;;;;;5023425;28;20453;-74
2021/08/20 12:34:14;;;;;;;4.43;2.50;;;25.40;67.00;;;;;;5020310;28;21385;-75
2021/08/20 12:37:01;;;;;;;6.40;2.40;;;25.70;63.00;;;;;;5021350;28;20975;-74
2021/08/20 12:39:47;;;;;;;4.93;2.67;;;25.60;61.40;;;;;;5028394;28;20491;-76
2021/08/20 12:42:33;;;;;;;4.45;2.28;;;25.70;68.40;;;;;;5022139;28;21077;-76
2021/08/20 12:45:20;;;;;;;3.73;2.70;;;25.70;65.90;;;;;;5028992;28;20226;-75
2021/08/20 12:48:09;;;;;;;3.57;2.53;;;25.70;62.20;;;;;;5017219;28;20658;-75
2021/08/20 12:50:59;;;;;;;5.33;2.60;;;25.50;63.50;;;;;;5024665;28;20454;-75
2021/08/20 12:53:45;;;;;;;2.73;2.17;;;25.30;61.70;;;;;;5022381;28;20963;-75
2021/08/20 12:56:32;;;;;;;6.53;2.73;;;25.10;64.40;;;;;;5028740;28;20495;-76
2021/08/20 12:59:18;;;;;;;3.60;2.10;;;24.80;68.20;;;;;;5021235;28;20455;-75
2021/08/20 13:02:04;;;;;;;6.83;2.53;;;24.80;66.20;;;;;;5024484;28;20468;-76
2021/08/20 13:04:51;;;;;;;4.83;2.50;;;24.40;62.80;;;;;;5023297;28;20508;-76
2021/08/20 13:07:36;;;;;;;4.50;2.70;;;24.00;66.90;;;;;;5031594;28;20428;-73
2021/08/20 13:10:22;;;;;;;4.10;2.47;;;23.80;69.90;;;;;;5030784;28;20214;-73
2021/08/20 13:13:07;;;;;;;4.83;2.30;;;23.80;71.50;;;;;;5026867;28;20484;-73
2021/08/20 13:15:54;;;;;;;3.70;2.20;;;23.80;70.90;;;;;;5024551;28;20471;-74
2021/08/20 13:18:39;;;;;;;3.40;2.23;;;23.90;73.00;;;;;;5024753;28;20820;-74
2021/08/20 13:21:27;;;;;;;4.90;2.40;;;23.90;72.90;;;;;;5021843;28;20857;-74
2021/08/20 13:24:12;;;;;;;5.63;2.10;;;24.00;73.00;;;;;;5028093;28;20424;-74
2021/08/20 13:26:58;;;;;;;3.65;2.72;;;24.00;68.50;;;;;;5023690;28;20954;-74
2021/08/20 13:29:44;;;;;;;4.05;2.40;;;24.00;70.80;;;;;;5030692;28;20440;-74
2021/08/20 13:32:29;;;;;;;4.03;2.23;;;24.10;77.00;;;;;;5027946;28;20591;-73
2021/08/20 13:35:15;;;;;;;6.63;2.53;;;24.10;69.60;;;;;;5023402;28;20487;-74
2021/08/20 13:38:02;;;;;;;3.77;2.80;;;24.20;76.50;;;;;;5019108;28;20567;-74
2021/08/20 13:40:49;;;;;;;5.20;2.50;;;24.20;70.30;;;;;;5031549;28;20926;-74
2021/08/20 13:43:35;;;;;;;5.17;2.60;;;24.10;74.00;;;;;;5033797;28;20423;-74
2021/08/20 13:46:21;;;;;;;4.00;2.50;;;24.20;73.50;;;;;;5028642;28;20474;-74
2021/08/20 13:49:07;;;;;;;5.45;2.40;;;24.20;73.60;;;;;;5026491;28;20918;-74
2021/08/20 13:51:53;;;;;;;4.57;1.80;;;24.30;77.10;;;;;;5024564;28;20449;-74
2021/08/20 13:54:40;;;;;;;7.93;2.50;;;24.60;74.30;;;;;;5030591;28;20591;-74
2021/08/20 13:57:26;;;;;;;3.93;2.43;;;25.00;66.80;;;;;;5045619;22;20514;-72
2021/08/20 14:00:12;;;;;;;3.70;2.17;;;25.20;61.20;;;;;;5033782;28;20415;-73
2021/08/20 14:02:58;;;;;;;9.07;2.17;;;25.50;61.50;;;;;;5028014;28;21071;-73
2021/08/20 14:05:44;;;;;;;5.60;2.57;;;25.90;62.80;;;;;;5023107;28;20536;-73
2021/08/20 14:08:30;;;;;;;3.53;2.50;;;26.30;62.90;;;;;;5027942;28;20421;-73
2021/08/20 14:11:17;;;;;;;5.83;2.20;;;26.20;59.60;;;;;;5036761;28;20472;-73
2021/08/20 14:14:03;;;;;;;5.23;2.57;;;25.80;55.20;;;;;;5032392;28;20842;-73
2021/08/20 14:16:48;;;;;;;4.70;3.20;;;25.60;60.90;;;;;;5025581;28;20524;-73
2021/08/20 14:19:34;;;;;;;3.63;1.93;;;25.40;62.10;;;;;;5030949;28;20816;-73
2021/08/20 14:22:20;;;;;;;3.47;2.10;;;25.40;60.30;;;;;;5027532;28;20446;-73
2021/08/20 14:25:07;;;;;;;4.20;2.70;;;25.40;57.10;;;;;;5024794;28;20839;-73
2021/08/20 14:27:54;;;;;;;2.90;1.87;;;25.50;57.70;;;;;;5031312;28;20455;-73